Time;durP1;ratioP1;P1;durP2;ratioP2;P2;SDS_P1;SDS_P2;PMS_P1;PMS_P2;Temp;Humidity;BMP_temperature;BMP_pressure;BME280_temperature;BME280_humidity;BME280_pressure;Samples;Min_cycle;Max_cycle;Signal;HPM_P1;HPM_P2
2023/12/08 00:00:33;;;;;;;66.18;28.20;;;;;;;;;;5792871;28;20129;-81
2023/12/08 00:03:23;;;;;;;46.72;20.95;;;;;;;;;;5792986;28;20057;-82
2023/12/08 00:06:14;;;;;;;47.03;17.55;;;;;;;;;;5793285;28;20061;-81
2023/12/08 00:09:05;;;;;;;39.92;19.60;;;;;;;;;;5792999;28;20046;-81
2023/12/08 00:11:57;;;;;;;48.83;22.75;;;;;;;;;;5794657;28;20169;-81
2023/12/08 00:14:49;;;;;;;62.90;25.58;;;;;;;;;;5793048;28;20042;-82
2023/12/08 00:17:40;;;;;;;56.08;19.67;;;;;;;;;;5792666;28;20600;-81
2023/12/08 00:20:31;;;;;;;42.75;17.00;;;;;;;;;;5794046;28;20122;-81
2023/12/08 00:23:21;;;;;;;48.20;20.15;;;;;;;;;;5776997;28;20116;-81
2023/12/08 00:26:12;;;;;;;78.95;23.52;;;;;;;;;;5793077;28;20511;-82
2023/12/08 00:29:04;;;;;;;45.17;18.17;;;;;;;;;;5792711;28;20753;-81
2023/12/08 00:31:55;;;;;;;43.45;18.95;;;;;;;;;;5793097;28;20074;-81
2023/12/08 00:34:46;;;;;;;51.08;19.98;;;;;;;;;;5776952;28;20424;-81
2023/12/08 00:37:37;;;;;;;25.00;14.93;;;;;;;;;;5792569;28;20050;-81
2023/12/08 00:40:27;;;;;;;24.52;12.52;;;;;;;;;;5792521;28;20047;-81
2023/12/08 00:43:18;;;;;;;39.38;16.05;;;;;;;;;;5792472;28;20073;-81
2023/12/08 00:46:09;;;;;;;31.80;13.48;;;;;;;;;;5792583;28;20415;-81
2023/12/08 00:49:00;;;;;;;27.75;12.15;;;;;;;;;;5794536;28;20062;-81
2023/12/08 00:51:51;;;;;;;32.15;14.13;;;;;;;;;;5792516;28;20101;-81
2023/12/08 00:54:42;;;;;;;29.40;15.38;;;;;;;;;;5792528;28;20050;-81
2023/12/08 00:57:32;;;;;;;33.47;16.63;;;;;;;;;;5797929;28;20500;-81
2023/12/08 01:00:23;;;;;;;32.55;14.48;;;;;;;;;;5796707;28;20047;-81
2023/12/08 01:03:14;;;;;;;67.88;21.75;;;;;;;;;;5788232;28;20083;-81
2023/12/08 01:06:05;;;;;;;78.88;28.08;;;;;;;;;;5774205;28;20059;-81
2023/12/08 01:08:56;;;;;;;67.30;22.20;;;;;;;;;;5790197;28;20047;-81
2023/12/08 01:11:47;;;;;;;37.97;17.27;;;;;;;;;;5789858;28;20453;-81
2023/12/08 01:14:38;;;;;;;69.22;37.38;;;;;;;;;;5773890;28;20047;-81
2023/12/08 01:17:29;;;;;;;59.90;26.85;;;;;;;;;;5789612;28;20047;-81
2023/12/08 01:20:21;;;;;;;44.28;20.38;;;;;;;;;;5789771;28;20544;-81
2023/12/08 01:23:13;;;;;;;48.28;20.67;;;;;;;;;;5789275;28;20051;-81
2023/12/08 01:26:08;;;;;;;54.50;20.52;;;;;;;;;;5774840;28;20051;-81
2023/12/08 01:29:00;;;;;;;39.67;17.17;;;;;;;;;;5773940;28;20047;-81
2023/12/08 01:31:50;;;;;;;38.05;16.35;;;;;;;;;;5789459;28;20055;-81
2023/12/08 01:34:41;;;;;;;51.78;14.45;;;;;;;;;;5757562;28;20039;-81
2023/12/08 01:37:32;;;;;;;35.10;16.45;;;;;;;;;;5774683;28;20051;-81
2023/12/08 01:40:23;;;;;;;27.58;13.85;;;;;;;;;;5774627;28;20417;-82
2023/12/08 01:43:13;;;;;;;34.67;13.77;;;;;;;;;;5789150;28;20058;-81
2023/12/08 01:46:05;;;;;;;36.30;10.57;;;;;;;;;;5773399;28;20055;-81
2023/12/08 01:48:56;;;;;;;26.58;12.80;;;;;;;;;;5789701;28;20047;-81
2023/12/08 01:51:49;;;;;;;31.30;14.55;;;;;;;;;;5788493;28;20446;-81
2023/12/08 01:54:40;;;;;;;24.40;14.95;;;;;;;;;;5788804;28;20433;-81
2023/12/08 01:57:32;;;;;;;29.63;11.77;;;;;;;;;;5788920;28;20043;-81
2023/12/08 02:00:23;;;;;;;33.70;13.15;;;;;;;;;;5774432;28;20394;-81
2023/12/08 02:03:15;;;;;;;34.50;13.52;;;;;;;;;;5788972;28;20047;-81
2023/12/08 02:06:06;;;;;;;24.25;11.45;;;;;;;;;;5788675;28;20051;-81
2023/12/08 02:08:58;;;;;;;25.88;13.10;;;;;;;;;;5788373;28;20043;-81
2023/12/08 02:11:49;;;;;;;24.42;13.02;;;;;;;;;;5788672;28;20054;-81
2023/12/08 02:14:40;;;;;;;23.63;13.77;;;;;;;;;;5774001;28;20047;-81
2023/12/08 02:17:38;;;;;;;21.65;9.63;;;;;;;;;;5788880;28;20047;-82
2023/12/08 02:20:30;;;;;;;38.53;13.00;;;;;;;;;;5772616;28;20047;-81
2023/12/08 02:23:21;;;;;;;22.73;11.43;;;;;;;;;;5788137;28;20058;-81
2023/12/08 02:26:12;;;;;;;21.63;13.25;;;;;;;;;;5788301;28;20066;-81
2023/12/08 02:29:05;;;;;;;23.27;12.77;;;;;;;;;;5788063;28;20055;-81
2023/12/08 02:32:04;;;;;;;34.83;12.95;;;;;;;;;;5788156;28;20049;-81
2023/12/08 02:34:57;;;;;;;29.98;12.45;;;;;;;;;;5787866;28;20047;-81
2023/12/08 02:37:50;;;;;;;23.55;12.35;;;;;;;;;;5788262;28;20412;-81
2023/12/08 02:40:41;;;;;;;31.65;13.05;;;;;;;;;;5773494;28;20051;-81
2023/12/08 02:43:32;;;;;;;24.42;11.18;;;;;;;;;;5788199;28;20039;-81
2023/12/08 02:46:23;;;;;;;34.15;13.98;;;;;;;;;;5788177;28;20054;-81
2023/12/08 02:49:13;;;;;;;15.95;9.73;;;;;;;;;;5771852;28;20059;-81
2023/12/08 02:52:05;;;;;;;24.40;13.38;;;;;;;;;;5773178;28;20130;-81
2023/12/08 02:54:56;;;;;;;25.63;12.30;;;;;;;;;;5773564;28;20516;-81
2023/12/08 02:57:47;;;;;;;19.55;12.07;;;;;;;;;;5773138;28;20523;-81
2023/12/08 03:00:38;;;;;;;29.80;14.70;;;;;;;;;;5787746;28;20446;-81
2023/12/08 03:03:28;;;;;;;30.35;12.18;;;;;;;;;;5787478;28;20053;-81
2023/12/08 03:06:19;;;;;;;24.95;12.70;;;;;;;;;;5772950;28;20051;-81
2023/12/08 03:09:10;;;;;;;19.98;12.73;;;;;;;;;;5773130;28;20397;-81
2023/12/08 03:12:01;;;;;;;25.95;13.60;;;;;;;;;;5787659;28;20051;-80
2023/12/08 03:14:52;;;;;;;36.53;13.35;;;;;;;;;;5773247;28;20727;-81
2023/12/08 03:17:43;;;;;;;22.05;9.70;;;;;;;;;;5772733;28;20043;-81
2023/12/08 03:20:34;;;;;;;16.65;11.40;;;;;;;;;;5787387;28;20047;-82
2023/12/08 03:23:24;;;;;;;24.50;10.75;;;;;;;;;;5787121;28;20094;-81
2023/12/08 03:26:15;;;;;;;26.10;9.55;;;;;;;;;;5787422;28;20062;-81
2023/12/08 03:29:06;;;;;;;24.50;11.18;;;;;;;;;;5787454;28;20047;-82
2023/12/08 03:31:57;;;;;;;19.63;12.00;;;;;;;;;;5787760;28;20043;-81
2023/12/08 03:34:48;;;;;;;37.30;15.20;;;;;;;;;;5787131;28;20178;-81
2023/12/08 03:37:39;;;;;;;29.88;15.43;;;;;;;;;;5771261;28;20043;-81
2023/12/08 03:40:29;;;;;;;31.48;11.07;;;;;;;;;;5772423;28;20051;-81
2023/12/08 03:43:20;;;;;;;26.60;9.50;;;;;;;;;;5772561;28;20460;-81
2023/12/08 03:46:11;;;;;;;27.75;11.52;;;;;;;;;;5771092;28;20051;-81
2023/12/08 03:49:02;;;;;;;20.75;11.13;;;;;;;;;;5787353;28;20051;-81
2023/12/08 03:51:53;;;;;;;23.35;10.57;;;;;;;;;;5772614;28;20055;-81
2023/12/08 03:54:43;;;;;;;21.60;9.77;;;;;;;;;;5786926;28;20532;-81
2023/12/08 03:57:34;;;;;;;22.25;8.90;;;;;;;;;;5772168;28;20050;-81
2023/12/08 04:00:25;;;;;;;25.45;7.85;;;;;;;;;;5786734;28;20043;-81
2023/12/08 04:03:16;;;;;;;20.77;10.40;;;;;;;;;;5787039;28;20051;-81
2023/12/08 04:06:07;;;;;;;16.95;9.25;;;;;;;;;;5787115;28;20425;-81
2023/12/08 04:08:58;;;;;;;19.67;7.72;;;;;;;;;;5787182;28;20079;-81
2023/12/08 04:11:49;;;;;;;17.90;7.55;;;;;;;;;;5786804;28;20137;-81
2023/12/08 04:14:39;;;;;;;12.48;6.82;;;;;;;;;;5786366;28;20050;-82
2023/12/08 04:17:33;;;;;;;22.75;8.77;;;;;;;;;;5770778;28;20584;-81
2023/12/08 04:20:24;;;;;;;18.73;8.85;;;;;;;;;;5786548;28;20115;-81
2023/12/08 04:23:15;;;;;;;18.95;9.13;;;;;;;;;;5786810;28;20093;-81
2023/12/08 04:26:07;;;;;;;15.45;7.20;;;;;;;;;;5786715;28;20493;-81
2023/12/08 04:28:57;;;;;;;10.80;7.05;;;;;;;;;;5772374;28;20053;-81
2023/12/08 04:31:48;;;;;;;26.85;10.80;;;;;;;;;;5790314;28;20631;-81
2023/12/08 04:34:39;;;;;;;21.70;7.50;;;;;;;;;;5791217;28;20456;-81
2023/12/08 04:37:30;;;;;;;21.52;10.43;;;;;;;;;;5791233;28;20106;-81
2023/12/08 04:40:21;;;;;;;18.40;8.45;;;;;;;;;;5791179;28;20055;-81
2023/12/08 04:43:11;;;;;;;19.08;8.95;;;;;;;;;;5791065;28;20054;-81
2023/12/08 04:46:03;;;;;;;17.67;7.68;;;;;;;;;;5791387;28;20051;-81
2023/12/08 04:48:53;;;;;;;19.80;9.65;;;;;;;;;;5778548;28;20512;-81
2023/12/08 04:51:44;;;;;;;20.67;10.70;;;;;;;;;;5791462;28;20095;-81
2023/12/08 04:54:35;;;;;;;22.00;8.82;;;;;;;;;;5791234;28;20046;-81
2023/12/08 04:57:26;;;;;;;11.73;6.32;;;;;;;;;;5776555;28;20043;-81
2023/12/08 05:00:17;;;;;;;18.15;10.30;;;;;;;;;;5776448;28;20066;-81
2023/12/08 05:03:09;;;;;;;17.63;8.48;;;;;;;;;;5791446;28;20055;-81
2023/12/08 05:06:01;;;;;;;16.25;6.95;;;;;;;;;;5775075;28;20530;-81
2023/12/08 05:08:52;;;;;;;16.42;9.27;;;;;;;;;;5791859;28;20103;-81
2023/12/08 05:11:43;;;;;;;33.40;13.63;;;;;;;;;;5790860;28;20050;-80
2023/12/08 05:14:34;;;;;;;20.13;10.48;;;;;;;;;;5775292;28;20047;-80
2023/12/08 05:17:25;;;;;;;25.27;9.60;;;;;;;;;;5791387;28;20117;-80
2023/12/08 05:20:16;;;;;;;21.75;9.18;;;;;;;;;;5787073;28;20051;-80
2023/12/08 05:23:07;;;;;;;21.98;10.27;;;;;;;;;;5792158;28;20047;-80
2023/12/08 05:25:58;;;;;;;20.63;8.93;;;;;;;;;;5778266;28;20516;-80
2023/12/08 05:28:49;;;;;;;19.73;9.85;;;;;;;;;;5776783;28;20051;-81
2023/12/08 05:31:40;;;;;;;26.55;11.18;;;;;;;;;;5776924;28;20050;-81
2023/12/08 05:34:31;;;;;;;23.45;9.63;;;;;;;;;;5791414;28;20039;-80
2023/12/08 05:37:21;;;;;;;27.65;11.43;;;;;;;;;;5775882;28;20612;-80
2023/12/08 05:40:13;;;;;;;22.17;10.57;;;;;;;;;;5775861;28;20059;-81
2023/12/08 05:43:04;;;;;;;24.25;9.45;;;;;;;;;;5789407;28;20058;-80
2023/12/08 05:45:55;;;;;;;23.30;8.75;;;;;;;;;;5775025;28;20055;-80
2023/12/08 05:48:47;;;;;;;21.27;9.75;;;;;;;;;;5759146;28;20137;-80
2023/12/08 05:51:38;;;;;;;16.98;10.25;;;;;;;;;;5791523;28;20413;-80
2023/12/08 05:54:29;;;;;;;18.35;10.25;;;;;;;;;;5791716;28;20047;-81
2023/12/08 05:57:20;;;;;;;21.42;10.75;;;;;;;;;;5791866;28;20113;-81
2023/12/08 06:00:12;;;;;;;22.65;10.63;;;;;;;;;;5791848;28;20055;-81
2023/12/08 06:03:03;;;;;;;22.42;9.45;;;;;;;;;;5776972;28;20051;-80
2023/12/08 06:05:53;;;;;;;32.28;13.60;;;;;;;;;;5792643;28;20047;-81
2023/12/08 06:08:44;;;;;;;27.17;11.65;;;;;;;;;;5791360;28;20047;-80
2023/12/08 06:11:35;;;;;;;29.67;12.98;;;;;;;;;;5777278;28;20047;-80
2023/12/08 06:14:26;;;;;;;27.10;10.65;;;;;;;;;;5791916;28;20112;-80
2023/12/08 06:17:17;;;;;;;30.33;9.85;;;;;;;;;;5775557;28;20047;-80
2023/12/08 06:20:10;;;;;;;21.75;9.75;;;;;;;;;;5790800;28;20593;-80
2023/12/08 06:23:01;;;;;;;19.15;8.85;;;;;;;;;;5774701;28;20163;-80
2023/12/08 06:25:51;;;;;;;23.25;9.15;;;;;;;;;;5792509;28;20062;-80
2023/12/08 06:28:42;;;;;;;20.00;7.55;;;;;;;;;;5792289;28;20043;-80
2023/12/08 06:31:33;;;;;;;16.58;9.23;;;;;;;;;;5792156;28;20051;-80
2023/12/08 06:34:24;;;;;;;28.90;9.85;;;;;;;;;;5792044;28;20128;-80
2023/12/08 06:37:15;;;;;;;20.67;9.48;;;;;;;;;;5777824;28;20055;-80
2023/12/08 06:40:06;;;;;;;10.73;7.38;;;;;;;;;;5792229;28;20047;-80
2023/12/08 06:42:57;;;;;;;13.02;7.85;;;;;;;;;;5789965;28;20047;-80
2023/12/08 06:45:48;;;;;;;18.83;10.20;;;;;;;;;;5791233;28;20058;-80
2023/12/08 06:48:39;;;;;;;18.10;9.45;;;;;;;;;;5777621;28;20047;-80
2023/12/08 06:51:30;;;;;;;12.45;5.65;;;;;;;;;;5791800;28;20481;-80
2023/12/08 06:54:20;;;;;;;14.10;8.57;;;;;;;;;;5777993;28;20055;-80
2023/12/08 06:57:11;;;;;;;17.02;10.45;;;;;;;;;;5778642;28;20118;-80
2023/12/08 07:00:07;;;;;;;20.00;9.27;;;;;;;;;;5792253;28;20071;-80
2023/12/08 07:02:58;;;;;;;15.07;8.45;;;;;;;;;;5777564;28;20067;-80
2023/12/08 07:05:49;;;;;;;24.73;8.55;;;;;;;;;;5791889;28;20039;-80
2023/12/08 07:08:40;;;;;;;11.23;6.97;;;;;;;;;;5776443;28;20118;-80
2023/12/08 07:11:31;;;;;;;20.80;9.98;;;;;;;;;;5790812;28;20126;-80
2023/12/08 07:14:22;;;;;;;15.82;7.65;;;;;;;;;;5790665;28;20053;-80
2023/12/08 07:17:12;;;;;;;23.77;8.43;;;;;;;;;;5791669;28;20055;-80
2023/12/08 07:20:06;;;;;;;20.92;11.15;;;;;;;;;;5776494;28;20055;-79
2023/12/08 07:22:57;;;;;;;15.20;7.85;;;;;;;;;;5776701;28;20094;-80
2023/12/08 07:25:48;;;;;;;32.38;9.27;;;;;;;;;;5791179;28;20122;-80
2023/12/08 07:28:38;;;;;;;22.30;10.57;;;;;;;;;;5776798;28;20145;-80
2023/12/08 07:31:30;;;;;;;24.83;11.52;;;;;;;;;;5791183;28;20043;-80
2023/12/08 07:34:20;;;;;;;28.77;10.93;;;;;;;;;;5777029;28;20059;-80
2023/12/08 07:37:11;;;;;;;25.02;11.15;;;;;;;;;;5774692;28;20051;-80
2023/12/08 07:40:05;;;;;;;18.33;9.15;;;;;;;;;;5777188;28;20055;-80
2023/12/08 07:42:55;;;;;;;18.52;6.43;;;;;;;;;;5777813;28;20055;-80
2023/12/08 07:45:46;;;;;;;12.80;7.03;;;;;;;;;;5790950;28;20413;-80
2023/12/08 07:48:37;;;;;;;21.45;8.07;;;;;;;;;;5790849;28;20126;-80
2023/12/08 07:51:28;;;;;;;9.20;4.70;;;;;;;;;;5776099;28;20046;-80
2023/12/08 07:54:19;;;;;;;13.30;7.18;;;;;;;;;;5790719;28;20047;-80
2023/12/08 07:57:10;;;;;;;16.08;7.75;;;;;;;;;;5789733;28;20047;-80
2023/12/08 08:00:04;;;;;;;7.82;4.55;;;;;;;;;;5789124;28;20057;-79
2023/12/08 08:02:56;;;;;;;16.63;6.32;;;;;;;;;;5790562;28;20055;-80
2023/12/08 08:05:47;;;;;;;14.10;5.65;;;;;;;;;;5790172;28;20095;-80
2023/12/08 08:08:37;;;;;;;7.15;5.57;;;;;;;;;;5790929;28;20047;-80
2023/12/08 08:11:28;;;;;;;15.15;7.07;;;;;;;;;;5788438;28;20130;-80
2023/12/08 08:14:20;;;;;;;13.77;6.57;;;;;;;;;;5788266;28;20070;-81
2023/12/08 08:17:11;;;;;;;10.15;5.22;;;;;;;;;;5774730;28;20043;-80
2023/12/08 08:20:03;;;;;;;14.80;6.60;;;;;;;;;;5790298;28;20361;-80
2023/12/08 08:22:55;;;;;;;14.10;6.47;;;;;;;;;;5775910;28;20052;-80
2023/12/08 08:25:46;;;;;;;14.10;6.95;;;;;;;;;;5790203;28;20480;-80
2023/12/08 08:28:37;;;;;;;31.60;15.35;;;;;;;;;;5790695;28;20058;-80
2023/12/08 08:31:27;;;;;;;312.65;122.97;;;;;;;;;;5775524;28;20082;-80
2023/12/08 08:34:19;;;;;;;230.88;107.20;;;;;;;;;;5774554;28;20051;-80
2023/12/08 08:37:10;;;;;;;121.43;55.70;;;;;;;;;;5775281;28;20133;-80
2023/12/08 08:40:01;;;;;;;45.38;19.50;;;;;;;;;;5788535;28;20059;-80
2023/12/08 08:42:52;;;;;;;49.47;17.55;;;;;;;;;;5789691;28;20126;-80
2023/12/08 08:45:42;;;;;;;38.22;15.00;;;;;;;;;;5773802;28;20087;-80
2023/12/08 08:48:33;;;;;;;30.58;11.02;;;;;;;;;;5788748;28;20048;-80
2023/12/08 08:51:24;;;;;;;59.72;22.38;;;;;;;;;;5789269;28;20612;-80
2023/12/08 08:54:16;;;;;;;27.67;12.63;;;;;;;;;;5789936;28;20425;-80
2023/12/08 08:57:07;;;;;;;20.02;8.82;;;;;;;;;;5793403;28;20172;-80
2023/12/08 08:59:58;;;;;;;73.65;29.52;;;;;;;;;;5789204;28;20493;-80
2023/12/08 09:02:51;;;;;;;68.35;21.98;;;;;;;;;;5788238;28;20047;-80
2023/12/08 09:05:43;;;;;;;70.20;23.40;;;;;;;;;;5773860;28;20145;-80
2023/12/08 09:08:34;;;;;;;61.95;24.83;;;;;;;;;;5788724;28;20158;-80
2023/12/08 09:11:25;;;;;;;103.07;30.35;;;;;;;;;;5788137;28;20051;-80
2023/12/08 09:14:16;;;;;;;95.43;33.13;;;;;;;;;;5788562;28;20055;-80
2023/12/08 09:17:07;;;;;;;44.40;15.00;;;;;;;;;;5790341;28;20055;-80
2023/12/08 09:19:58;;;;;;;35.78;12.40;;;;;;;;;;5792652;28;20051;-80
2023/12/08 09:22:51;;;;;;;31.17;13.15;;;;;;;;;;5792116;28;20050;-80
2023/12/08 09:25:41;;;;;;;56.30;18.15;;;;;;;;;;5775860;28;20051;-80
2023/12/08 09:28:32;;;;;;;47.80;15.82;;;;;;;;;;5792100;28;20049;-80
2023/12/08 09:31:23;;;;;;;73.20;27.35;;;;;;;;;;5792194;28;20047;-80
2023/12/08 09:34:15;;;;;;;27.70;13.63;;;;;;;;;;5775514;28;20057;-80
2023/12/08 09:37:06;;;;;;;16.88;9.38;;;;;;;;;;5791335;28;20063;-80
2023/12/08 09:40:16;;;;;;;36.22;14.68;;;;;;;;;;5789347;28;20117;-80
2023/12/08 09:43:56;;;;;;;34.95;12.70;;;;;;;;;;5791322;28;20508;-80
2023/12/08 09:46:54;;;;;;;44.78;19.85;;;;;;;;;;5776526;28;20080;-80
2023/12/08 09:49:49;;;;;;;28.38;12.02;;;;;;;;;;5777005;28;20609;-80
2023/12/08 09:52:43;;;;;;;26.25;8.52;;;;;;;;;;5776477;28;20043;-80
2023/12/08 09:55:37;;;;;;;31.35;14.32;;;;;;;;;;5791726;28;20413;-80
2023/12/08 09:58:28;;;;;;;24.55;9.60;;;;;;;;;;5790932;28;20046;-80
2023/12/08 10:01:19;;;;;;;25.05;10.63;;;;;;;;;;5791573;28;20058;-80
2023/12/08 10:04:10;;;;;;;22.88;11.00;;;;;;;;;;5791766;28;20043;-80
2023/12/08 10:07:05;;;;;;;18.95;8.85;;;;;;;;;;5791400;28;20048;-81
2023/12/08 10:09:56;;;;;;;14.95;8.70;;;;;;;;;;5777692;28;20055;-80
2023/12/08 10:12:50;;;;;;;21.25;12.57;;;;;;;;;;5791540;28;20126;-80
2023/12/08 10:15:43;;;;;;;18.65;6.57;;;;;;;;;;5775642;28;20043;-80
2023/12/08 10:18:34;;;;;;;13.75;7.13;;;;;;;;;;5792432;28;20156;-80
2023/12/08 10:21:25;;;;;;;8.65;5.72;;;;;;;;;;5775511;28;20480;-81
2023/12/08 10:24:16;;;;;;;10.63;6.70;;;;;;;;;;5790464;28;20512;-81
2023/12/08 10:27:09;;;;;;;10.27;6.47;;;;;;;;;;5790558;28;20683;-80
2023/12/08 10:30:03;;;;;;;9.45;5.45;;;;;;;;;;5790192;28;20066;-81
2023/12/08 10:32:54;;;;;;;22.20;6.68;;;;;;;;;;5775394;28;20150;-80
2023/12/08 10:35:47;;;;;;;21.70;9.10;;;;;;;;;;5776316;28;20042;-80
2023/12/08 10:38:39;;;;;;;11.77;6.45;;;;;;;;;;5790683;28;20043;-80
2023/12/08 10:41:30;;;;;;;15.95;8.63;;;;;;;;;;5791500;28;20051;-80
2023/12/08 10:44:22;;;;;;;25.95;12.85;;;;;;;;;;5777423;28;20047;-80
2023/12/08 10:47:17;;;;;;;21.83;13.48;;;;;;;;;;5791408;28;20082;-80
2023/12/08 10:50:09;;;;;;;13.73;8.82;;;;;;;;;;5790908;28;20062;-80
2023/12/08 10:53:01;;;;;;;11.95;7.97;;;;;;;;;;5774772;28;20059;-80
2023/12/08 10:55:58;;;;;;;15.38;7.50;;;;;;;;;;5775147;28;20070;-80
2023/12/08 10:59:01;;;;;;;19.60;7.78;;;;;;;;;;5790675;28;20409;-80
2023/12/08 11:01:54;;;;;;;24.52;11.13;;;;;;;;;;5775430;28;20039;-80
2023/12/08 11:04:53;;;;;;;11.57;6.80;;;;;;;;;;5791407;28;20054;-80
2023/12/08 11:07:45;;;;;;;17.63;9.45;;;;;;;;;;5744505;28;20413;-80
2023/12/08 11:10:38;;;;;;;10.95;5.50;;;;;;;;;;5789836;28;20121;-80
2023/12/08 11:13:34;;;;;;;10.38;7.70;;;;;;;;;;5790653;28;20050;-80
2023/12/08 11:16:39;;;;;;;17.30;8.57;;;;;;;;;;5773969;28;20051;-80
2023/12/08 11:19:32;;;;;;;14.00;6.82;;;;;;;;;;5772766;28;20055;-80
2023/12/08 11:22:23;;;;;;;25.85;9.15;;;;;;;;;;5774390;28;20105;-80
2023/12/08 11:25:49;;;;;;;50.22;21.65;;;;;;;;;;5774952;28;20058;-80
2023/12/08 11:29:21;;;;;;;29.92;10.65;;;;;;;;;;5775288;28;20516;-80
2023/12/08 11:32:44;;;;;;;15.88;7.82;;;;;;;;;;5774336;28;20505;-81
2023/12/08 11:35:36;;;;;;;20.83;11.70;;;;;;;;;;5790124;28;20039;-80
2023/12/08 11:38:28;;;;;;;16.25;7.05;;;;;;;;;;5774389;28;20102;-80
2023/12/08 11:41:19;;;;;;;7.30;5.93;;;;;;;;;;5789154;28;20055;-80
2023/12/08 11:44:10;;;;;;;13.15;7.85;;;;;;;;;;5790032;28;20047;-80
2023/12/08 11:47:01;;;;;;;18.25;9.60;;;;;;;;;;5789013;28;20058;-81
2023/12/08 11:49:55;;;;;;;11.02;7.25;;;;;;;;;;5789303;28;20051;-81
2023/12/08 11:52:45;;;;;;;21.80;8.20;;;;;;;;;;5773049;28;20039;-81
2023/12/08 11:55:38;;;;;;;9.00;6.50;;;;;;;;;;5775031;28;20051;-80
2023/12/08 11:58:33;;;;;;;14.82;6.57;;;;;;;;;;5789240;28;20047;-80
2023/12/08 12:01:24;;;;;;;20.20;8.25;;;;;;;;;;5787694;28;20101;-80
2023/12/08 12:04:17;;;;;;;12.63;7.25;;;;;;;;;;5788304;28;20055;-80
2023/12/08 12:07:08;;;;;;;15.43;6.95;;;;;;;;;;5772106;28;20051;-80
2023/12/08 12:10:02;;;;;;;21.88;8.75;;;;;;;;;;5787167;28;20047;-80
2023/12/08 12:13:15;;;;;;;19.58;8.80;;;;;;;;;;5785828;28;20055;-80
2023/12/08 12:16:08;;;;;;;18.80;7.32;;;;;;;;;;5786861;28;20516;-80
2023/12/08 12:18:59;;;;;;;13.50;6.25;;;;;;;;;;5787971;28;20130;-81
2023/12/08 12:21:50;;;;;;;16.38;7.63;;;;;;;;;;5787671;28;20043;-80
2023/12/08 12:24:41;;;;;;;23.70;9.75;;;;;;;;;;5787963;28;20043;-80
2023/12/08 12:27:32;;;;;;;23.95;8.90;;;;;;;;;;5787737;28;20058;-80
2023/12/08 12:30:23;;;;;;;11.07;7.20;;;;;;;;;;5771717;28;20054;-80
2023/12/08 12:33:14;;;;;;;27.45;11.15;;;;;;;;;;5773659;28;20138;-80
2023/12/08 12:36:05;;;;;;;16.38;9.15;;;;;;;;;;5789137;28;20123;-81
2023/12/08 12:38:57;;;;;;;15.55;8.80;;;;;;;;;;5789133;28;20058;-81
2023/12/08 12:41:48;;;;;;;12.02;7.47;;;;;;;;;;5787443;28;20213;-80
2023/12/08 12:44:47;;;;;;;100.95;32.00;;;;;;;;;;5787949;28;20048;-81
2023/12/08 12:47:39;;;;;;;34.75;15.02;;;;;;;;;;5773746;28;20047;-81
2023/12/08 12:50:30;;;;;;;21.70;12.77;;;;;;;;;;5775006;28;20047;-80
2023/12/08 12:53:21;;;;;;;22.80;11.02;;;;;;;;;;5793237;28;20408;-80
2023/12/08 12:56:11;;;;;;;32.28;13.18;;;;;;;;;;5761586;28;20765;-81
2023/12/08 12:59:08;;;;;;;17.88;8.80;;;;;;;;;;5778461;28;20051;-80
2023/12/08 13:01:59;;;;;;;20.92;11.18;;;;;;;;;;5792804;28;20413;-80
2023/12/08 13:04:50;;;;;;;35.55;10.57;;;;;;;;;;5778273;28;20039;-80
2023/12/08 13:07:41;;;;;;;27.10;10.13;;;;;;;;;;5794177;28;20083;-80
2023/12/08 13:10:32;;;;;;;19.63;13.55;;;;;;;;;;5794342;28;20047;-80
2023/12/08 13:13:22;;;;;;;32.05;11.10;;;;;;;;;;5777210;28;20047;-80
2023/12/08 13:16:13;;;;;;;29.15;16.17;;;;;;;;;;5777099;28;20059;-80
2023/12/08 13:19:04;;;;;;;19.55;10.57;;;;;;;;;;5779143;28;20058;-80
2023/12/08 13:21:55;;;;;;;26.83;11.73;;;;;;;;;;5778717;28;20559;-80
2023/12/08 13:24:47;;;;;;;25.92;12.48;;;;;;;;;;5794292;28;20051;-81
2023/12/08 13:27:38;;;;;;;28.63;13.52;;;;;;;;;;5794142;28;20446;-80
2023/12/08 13:30:29;;;;;;;21.50;9.77;;;;;;;;;;5779513;28;20039;-80
2023/12/08 13:33:21;;;;;;;25.98;11.15;;;;;;;;;;5780803;28;20047;-80
2023/12/08 13:36:12;;;;;;;25.65;13.55;;;;;;;;;;5793948;28;20178;-80
2023/12/08 13:39:04;;;;;;;51.53;14.25;;;;;;;;;;5794038;28;20051;-80
2023/12/08 13:41:56;;;;;;;22.58;9.85;;;;;;;;;;5763072;29;20054;-80
2023/12/08 13:44:47;;;;;;;29.45;13.38;;;;;;;;;;5796052;28;20098;-80
2023/12/08 13:47:38;;;;;;;35.35;14.45;;;;;;;;;;5795307;28;20043;-80
2023/12/08 13:50:29;;;;;;;24.10;10.98;;;;;;;;;;5778772;28;20058;-80
2023/12/08 13:53:20;;;;;;;23.70;12.02;;;;;;;;;;5780570;28;20051;-80
2023/12/08 13:56:11;;;;;;;19.75;9.13;;;;;;;;;;5793896;28;20054;-80
2023/12/08 13:59:02;;;;;;;21.15;11.02;;;;;;;;;;5793935;28;20505;-80
2023/12/08 14:01:53;;;;;;;20.73;11.15;;;;;;;;;;5793823;28;20130;-81
2023/12/08 14:04:44;;;;;;;37.03;12.30;;;;;;;;;;5777600;28;20512;-81
2023/12/08 14:07:35;;;;;;;23.73;10.60;;;;;;;;;;5793190;28;20058;-80
2023/12/08 14:10:26;;;;;;;26.38;10.43;;;;;;;;;;5792801;28;20129;-80
2023/12/08 14:13:17;;;;;;;21.38;10.48;;;;;;;;;;5777360;28;20062;-80
2023/12/08 14:16:08;;;;;;;17.95;8.82;;;;;;;;;;5792877;28;20400;-80
2023/12/08 14:18:59;;;;;;;19.55;9.65;;;;;;;;;;5775341;28;20571;-80
2023/12/08 14:21:50;;;;;;;18.48;9.70;;;;;;;;;;5790485;28;20054;-80
2023/12/08 14:24:41;;;;;;;19.95;10.18;;;;;;;;;;5777288;28;20051;-80
2023/12/08 14:27:32;;;;;;;26.30;12.48;;;;;;;;;;5791494;28;20481;-80
2023/12/08 14:30:27;;;;;;;19.10;10.32;;;;;;;;;;5790502;28;20047;-80
2023/12/08 14:33:18;;;;;;;15.10;6.95;;;;;;;;;;5790702;28;20074;-80
2023/12/08 14:36:09;;;;;;;10.68;6.75;;;;;;;;;;5777957;28;20051;-80
2023/12/08 14:39:01;;;;;;;18.25;10.00;;;;;;;;;;5774969;28;20050;-80
2023/12/08 14:41:52;;;;;;;13.18;6.63;;;;;;;;;;5777282;28;20046;-80
2023/12/08 14:44:42;;;;;;;12.57;7.10;;;;;;;;;;5776857;28;20047;-80
2023/12/08 14:47:33;;;;;;;17.80;9.55;;;;;;;;;;5775299;28;20057;-80
2023/12/08 14:50:24;;;;;;;21.67;10.18;;;;;;;;;;5777356;28;20047;-80
2023/12/08 14:53:15;;;;;;;19.20;8.55;;;;;;;;;;5776829;28;20054;-80
2023/12/08 14:56:07;;;;;;;19.73;10.15;;;;;;;;;;5791040;28;20055;-80
2023/12/08 14:58:58;;;;;;;13.95;6.93;;;;;;;;;;5775840;28;20051;-80
2023/12/08 15:01:53;;;;;;;17.80;6.15;;;;;;;;;;5790112;28;20054;-80
2023/12/08 15:04:44;;;;;;;18.80;7.32;;;;;;;;;;5791019;28;20053;-80
2023/12/08 15:07:35;;;;;;;18.90;7.03;;;;;;;;;;5790971;28;20047;-80
2023/12/08 15:10:26;;;;;;;13.88;7.20;;;;;;;;;;5792252;28;20043;-80
2023/12/08 15:13:17;;;;;;;24.00;11.45;;;;;;;;;;5776644;28;20059;-80
2023/12/08 15:16:08;;;;;;;37.88;18.10;;;;;;;;;;5776737;28;20469;-80
2023/12/08 15:18:59;;;;;;;209.63;105.25;;;;;;;;;;5791784;28;20062;-80
2023/12/08 15:21:51;;;;;;;127.93;61.72;;;;;;;;;;5790756;28;20126;-80
2023/12/08 15:24:42;;;;;;;123.18;55.75;;;;;;;;;;5788301;28;20129;-80
2023/12/08 15:27:33;;;;;;;71.78;26.75;;;;;;;;;;5759037;28;20057;-80
2023/12/08 15:30:24;;;;;;;40.88;18.00;;;;;;;;;;5790029;28;20373;-80
2023/12/08 15:33:15;;;;;;;77.50;22.95;;;;;;;;;;5774083;28;20521;-80
2023/12/08 15:36:08;;;;;;;91.55;33.50;;;;;;;;;;5788745;28;20063;-80
2023/12/08 15:38:59;;;;;;;32.42;19.08;;;;;;;;;;5773975;28;20046;-80
2023/12/08 15:41:50;;;;;;;39.28;16.08;;;;;;;;;;5773547;28;20051;-81
2023/12/08 15:44:41;;;;;;;32.35;14.27;;;;;;;;;;5774212;28;20086;-80
2023/12/08 15:47:32;;;;;;;31.05;13.60;;;;;;;;;;5789079;28;20102;-80
2023/12/08 15:50:23;;;;;;;45.92;17.13;;;;;;;;;;5773654;28;20584;-80
2023/12/08 15:53:14;;;;;;;96.28;26.65;;;;;;;;;;5774594;28;20141;-80
2023/12/08 15:56:06;;;;;;;109.65;37.35;;;;;;;;;;5788695;28;20054;-80
2023/12/08 15:58:58;;;;;;;35.47;15.60;;;;;;;;;;5772929;28;20047;-81
2023/12/08 16:01:56;;;;;;;82.50;34.60;;;;;;;;;;5790305;28;20046;-81
2023/12/08 16:04:47;;;;;;;49.05;17.45;;;;;;;;;;5774448;28;20054;-80
2023/12/08 16:07:37;;;;;;;78.97;23.35;;;;;;;;;;5787641;28;20479;-80
2023/12/08 16:10:28;;;;;;;91.75;20.58;;;;;;;;;;5788683;28;20043;-80
2023/12/08 16:13:19;;;;;;;68.57;23.08;;;;;;;;;;5788796;28;20052;-80
2023/12/08 16:16:10;;;;;;;72.85;25.75;;;;;;;;;;5787326;28;20055;-80
2023/12/08 16:19:01;;;;;;;27.15;14.13;;;;;;;;;;5772587;28;20114;-80
2023/12/08 16:21:52;;;;;;;29.38;18.73;;;;;;;;;;5788935;28;20054;-80
2023/12/08 16:24:43;;;;;;;54.65;23.05;;;;;;;;;;5787694;28;20051;-80
2023/12/08 16:27:33;;;;;;;43.17;19.63;;;;;;;;;;5776181;28;20047;-80
2023/12/08 16:30:24;;;;;;;41.08;15.63;;;;;;;;;;5775374;28;20051;-80
2023/12/08 16:33:15;;;;;;;22.02;11.57;;;;;;;;;;5777156;28;20520;-80
2023/12/08 16:36:06;;;;;;;17.45;10.07;;;;;;;;;;5791469;28;20055;-81
2023/12/08 16:38:58;;;;;;;30.13;11.07;;;;;;;;;;5777976;28;20098;-80
2023/12/08 16:41:49;;;;;;;29.38;11.82;;;;;;;;;;5793312;28;20075;-80
2023/12/08 16:44:40;;;;;;;19.77;9.77;;;;;;;;;;5792444;28;20040;-80